»·PEaware :: N103MR KSEA-KPDX

N103MR :: KSEA-KPDX

FLIGHT INFORMATION

Flight Status: Arrived
Operator: Privately registered:
United States
More flights under this callsign
Pilot: Michael R. (16974)
Aircraft: BEECH AIRCRAFT BARON
(BE58)
More flights by this aircraft type
Origin: KSEA Seattle-Tacoma Intl
United States
Destination: KPDX Portland Intl
United States
More flights between these airports :: More routes between these airports
Route: +SEA V495 BTG
File this flight plan on PilotEdge
Remarks:
Altitude:
(Current/Filed)
9,000ft
Speed:
(Current/Filed)
180kts
Departed: 22-Dec-17 02:06 PM
Arrived: 22-Dec-17 03:18 PM
Distance/Time
Traveled:
113nm/1:11
Distance/Time
To Go:
Arrived

Flight Plot

Page will automatically refresh every two minutes.

Flight plan parsing failed; only flown route is shown


Map Options




Map Legend


Flown Route
Filed Route
Departure Airport
Arrival Airport
Navaid (VOR, NDB)
Fix

Horizontal Profiles

Position Reports

Time Latitude Longitude Heading Altitude Ground
Speed
22-Dec-17 13:49 47.439178 -122.315209 55 348ft 0kts
22-Dec-17 13:50 47.439178 -122.315209 55 348ft 0kts
22-Dec-17 13:51 47.439178 -122.315209 55 348ft 0kts
22-Dec-17 13:52 47.439178 -122.315209 55 348ft 0kts
22-Dec-17 13:53 47.439178 -122.315209 55 348ft 0kts
22-Dec-17 13:54 47.439178 -122.315209 55 348ft 0kts
22-Dec-17 13:55 47.439178 -122.315209 55 348ft 0kts
22-Dec-17 13:56 47.439178 -122.315209 55 348ft 0kts
22-Dec-17 13:57 47.439178 -122.315209 55 348ft 0kts
22-Dec-17 13:58 47.439178 -122.315209 55 348ft 0kts
22-Dec-17 13:59 47.439178 -122.315209 55 348ft 0kts
22-Dec-17 14:00 47.439178 -122.315209 55 348ft 0kts
22-Dec-17 14:01 47.439178 -122.315209 55 348ft 0kts
22-Dec-17 14:02 47.439178 -122.315209 55 348ft 0kts
22-Dec-17 14:03 47.439178 -122.315209 55 348ft 0kts
22-Dec-17 14:04 47.439178 -122.315209 55 348ft 0kts
22-Dec-17 14:05 47.439178 -122.315209 55 348ft 0kts
22-Dec-17 14:06 47.439221 -122.315117 55 348ft 2kts
22-Dec-17 14:07 47.440654 -122.316369 272 350ft 17kts
22-Dec-17 14:08 47.440659 -122.316794 271 348ft 0kts
22-Dec-17 14:09 47.440659 -122.316794 271 348ft 0kts
22-Dec-17 14:10 47.440871 -122.317864 324 346ft 13kts
22-Dec-17 14:11 47.441528 -122.318073 358 347ft 0kts
22-Dec-17 14:12 47.463434 -122.317690 1 1050ft 110kts
22-Dec-17 14:13 47.492253 -122.312971 356 2667ft 102kts
22-Dec-17 14:14 47.517792 -122.326894 285 4148ft 112kts
22-Dec-17 14:15 47.505729 -122.375530 256 5259ft 137kts
22-Dec-17 14:16 47.489259 -122.425237 226 6402ft 144kts
22-Dec-17 14:17 47.446677 -122.425863 176 7364ft 163kts
22-Dec-17 14:18 47.399443 -122.421319 188 7883ft 177kts
22-Dec-17 14:19 47.347332 -122.432106 185 7438ft 205kts
22-Dec-17 14:20 47.294598 -122.430901 186 8158ft 182kts
22-Dec-17 14:21 47.244666 -122.429211 187 8713ft 180kts
22-Dec-17 14:22 47.194871 -122.427483 188 8997ft 184kts
22-Dec-17 14:23 47.146035 -122.425669 188 8993ft 171kts
22-Dec-17 14:24 47.096837 -122.424003 188 8995ft 182kts
22-Dec-17 14:25 47.045890 -122.422163 187 8994ft 185kts
22-Dec-17 14:26 46.994234 -122.420303 187 8994ft 186kts
22-Dec-17 14:27 46.942612 -122.418453 187 9003ft 185kts
22-Dec-17 14:28 46.892303 -122.416650 187 9012ft 183kts
22-Dec-17 14:29 46.842000 -122.414861 187 9012ft 183kts
22-Dec-17 14:30 46.791843 -122.419147 196 9012ft 179kts
22-Dec-17 14:31 46.742281 -122.427481 195 8992ft 180kts
22-Dec-17 14:32 46.692539 -122.435821 195 8993ft 180kts
22-Dec-17 14:33 46.642898 -122.444133 195 8988ft 181kts
22-Dec-17 14:34 46.593268 -122.452428 195 8984ft 181kts
22-Dec-17 14:35 46.543402 -122.460748 195 8984ft 180kts
22-Dec-17 14:36 46.493516 -122.469057 195 8984ft 180kts
22-Dec-17 14:37 46.444011 -122.477288 195 8984ft 180kts
22-Dec-17 14:38 46.394302 -122.485537 195 8984ft 180kts
22-Dec-17 14:39 46.344837 -122.493715 195 8983ft 177kts
22-Dec-17 14:40 46.296173 -122.501761 195 8984ft 175kts
22-Dec-17 14:41 46.247948 -122.509714 196 8984ft 174kts
22-Dec-17 14:42 46.199710 -122.517612 198 8982ft 172kts
22-Dec-17 14:43 46.153035 -122.523882 202 8985ft 163kts
22-Dec-17 14:44 46.107732 -122.548109 216 8007ft 174kts
22-Dec-17 14:45 46.068390 -122.576561 216 6930ft 137kts
22-Dec-17 14:46 46.036662 -122.599543 214 5415ft 124kts
22-Dec-17 14:47 46.007389 -122.621058 214 4803ft 114kts
22-Dec-17 14:48 45.979686 -122.649225 221 4983ft 126kts
22-Dec-17 14:49 45.951875 -122.677556 220 4969ft 135kts
22-Dec-17 14:50 45.918730 -122.711972 220 4979ft 154kts
22-Dec-17 14:51 45.886918 -122.746114 230 4978ft 142kts
22-Dec-17 14:52 45.849577 -122.779524 220 4990ft 169kts
22-Dec-17 14:53 45.808781 -122.816189 220 4986ft 174kts
22-Dec-17 14:54 45.763581 -122.839696 191 4528ft 183kts
22-Dec-17 14:55 45.721301 -122.833458 145 3588ft 147kts
22-Dec-17 14:56 45.692251 -122.804895 149 3506ft 120kts
22-Dec-17 14:57 45.661625 -122.777635 150 3513ft 144kts
22-Dec-17 14:58 45.656069 -122.735874 27 4007ft 120kts
22-Dec-17 14:59 45.691203 -122.723237 18 3627ft 114kts
22-Dec-17 15:00 45.718209 -122.700726 358 4081ft 119kts
22-Dec-17 15:01 45.740446 -122.738669 298 3984ft 145kts
22-Dec-17 15:02 45.753700 -122.788742 292 3988ft 131kts
22-Dec-17 15:03 45.769144 -122.833700 303 3991ft 124kts
22-Dec-17 15:04 45.786155 -122.876445 301 3990ft 123kts
22-Dec-17 15:05 45.760848 -122.910534 194 3984ft 154kts
22-Dec-17 15:06 45.723081 -122.877797 144 3991ft 163kts
22-Dec-17 15:07 45.688621 -122.838514 144 3990ft 151kts
22-Dec-17 15:08 45.656435 -122.800936 143 3991ft 148kts
22-Dec-17 15:09 45.625312 -122.763163 141 3991ft 145kts
22-Dec-17 15:10 45.618743 -122.717572 32 3992ft 119kts
22-Dec-17 15:11 45.648725 -122.692923 14 3998ft 136kts
22-Dec-17 15:12 45.684946 -122.674307 339 3995ft 133kts
22-Dec-17 15:13 45.703059 -122.716170 294 3989ft 121kts
22-Dec-17 15:14 45.715551 -122.759086 294 3990ft 114kts
22-Dec-17 15:15 45.727888 -122.800635 294 3992ft 112kts
22-Dec-17 15:16 45.740419 -122.841173 292 3991ft 110kts
22-Dec-17 15:17 45.719350 -122.874842 215 3989ft 129kts
22-Dec-17 15:18 45.686142 -122.847249 130 3635ft 153kts
22-Dec-17 15:19 45.665223 -122.801560 118 2976ft 132kts
22-Dec-17 15:20 45.647502 -122.756318 117 2243ft 129kts
22-Dec-17 15:21 45.630347 -122.712091 115 1512ft 124kts
22-Dec-17 15:22 45.614001 -122.669901 116 824ft 115kts
22-Dec-17 15:23 45.599222 -122.631934 115 237ft 114kts
22-Dec-17 15:24 45.589169 -122.605419 85 17ft 21kts
22-Dec-17 15:25 45.589374 -122.604742 49 17ft 0kts
22-Dec-17 15:26 45.587584 -122.598795 119 17ft 30kts
22-Dec-17 15:27 45.583658 -122.588765 119 20ft 20kts
22-Dec-17 15:28 45.581963 -122.582067 113 16ft 14kts
22-Dec-17 15:29 45.581807 -122.580085 215 18ft 0kts
22-Dec-17 15:30 45.581807 -122.580085 215 18ft 0kts
22-Dec-17 15:31 45.581807 -122.580085 215 18ft 0kts
22-Dec-17 15:32 45.581807 -122.580085 215 18ft 0kts
22-Dec-17 15:33 45.581807 -122.580085 215 18ft 0kts
22-Dec-17 15:34 45.581807 -122.580085 215 18ft 0kts
22-Dec-17 15:35 45.581807 -122.580085 215 18ft 0kts
22-Dec-17 15:36 45.581807 -122.580085 215 18ft 0kts
22-Dec-17 15:37 45.581807 -122.580085 215 18ft 0kts
22-Dec-17 15:38 45.581807 -122.580085 215 18ft 0kts

Navigation Log

Ident Type
Flight plan parsing failed, navigation log unavailable